Time;durP1;ratioP1;P1;durP2;ratioP2;P2;SDS_P1;SDS_P2;PMS_P1;PMS_P2;Temp;Humidity;BMP_temperature;BMP_pressure;BME280_temperature;BME280_humidity;BME280_pressure;Samples;Min_cycle;Max_cycle;Signal;HPM_P1;HPM_P2
2024/01/16 00:00:05;;;;;;;2.42;2.15;;;1.40;99.90;;;;;;4936578;28;20031;-68
2024/01/16 00:02:30;;;;;;;2.08;1.88;;;1.40;99.90;;;;;;4931057;28;20328;-68
2024/01/16 00:04:56;;;;;;;3.67;2.15;;;1.40;99.90;;;;;;4934892;28;20407;-66
2024/01/16 00:07:22;;;;;;;3.22;2.17;;;1.40;99.90;;;;;;4935176;28;20109;-70
2024/01/16 00:09:47;;;;;;;2.28;1.60;;;1.30;99.90;;;;;;4935178;28;20027;-68
2024/01/16 00:12:13;;;;;;;2.65;2.00;;;1.40;99.90;;;;;;4934385;28;20518;-68
2024/01/16 00:14:39;;;;;;;2.80;2.10;;;1.30;99.90;;;;;;4936288;28;20106;-69
2024/01/16 00:17:05;;;;;;;3.63;2.25;;;1.30;99.90;;;;;;4919399;28;20037;-69
2024/01/16 00:19:30;;;;;;;3.05;2.10;;;1.40;99.90;;;;;;4929947;28;20605;-71
2024/01/16 00:21:56;;;;;;;27.27;2.40;;;1.30;99.90;;;;;;4948179;28;20036;-71
2024/01/16 00:24:22;;;;;;;2.85;2.00;;;1.30;99.90;;;;;;4935478;28;20403;-68
2024/01/16 00:26:49;;;;;;;4.22;2.08;;;1.20;99.90;;;;;;4935053;28;20455;-69
2024/01/16 00:29:15;;;;;;;2.20;1.75;;;1.30;99.90;;;;;;4932352;28;20421;-70
2024/01/16 00:31:41;;;;;;;3.08;1.90;;;1.30;99.90;;;;;;4934780;28;20050;-69
2024/01/16 00:34:07;;;;;;;3.65;2.30;;;1.30;99.90;;;;;;4936344;28;20039;-69
2024/01/16 00:36:33;;;;;;;2.45;1.90;;;1.30;99.90;;;;;;4937062;28;20031;-69
2024/01/16 00:38:58;;;;;;;2.53;1.60;;;1.30;99.90;;;;;;4936092;28;20059;-70
2024/01/16 00:41:24;;;;;;;3.13;1.98;;;1.40;99.90;;;;;;4935249;28;20458;-72
2024/01/16 00:43:50;;;;;;;2.40;1.60;;;1.40;99.90;;;;;;4938211;28;20035;-68
2024/01/16 00:46:15;;;;;;;1.67;1.58;;;1.30;99.90;;;;;;4934034;28;20740;-68
2024/01/16 00:48:41;;;;;;;2.20;1.75;;;1.30;99.90;;;;;;4935993;28;20058;-68
2024/01/16 00:51:06;;;;;;;2.40;1.90;;;1.30;99.90;;;;;;4934882;28;20078;-69
2024/01/16 00:53:32;;;;;;;2.08;1.60;;;1.30;99.90;;;;;;4934874;28;20122;-67
2024/01/16 00:55:58;;;;;;;2.65;1.75;;;1.30;99.90;;;;;;4937559;28;20034;-66
2024/01/16 00:58:24;;;;;;;2.13;1.70;;;1.30;99.90;;;;;;4936738;28;20131;-69
2024/01/16 01:00:49;;;;;;;4.15;1.50;;;1.30;99.90;;;;;;4935045;28;20034;-71
2024/01/16 01:03:15;;;;;;;2.00;1.42;;;1.40;99.90;;;;;;4937157;28;20027;-67
2024/01/16 01:05:41;;;;;;;2.47;1.92;;;1.30;99.90;;;;;;4933882;28;20031;-69
2024/01/16 01:08:07;;;;;;;1.58;1.38;;;1.30;99.90;;;;;;4929860;28;20059;-74
2024/01/16 01:10:33;;;;;;;1.80;1.52;;;1.30;99.90;;;;;;4934569;28;20020;-71
2024/01/16 01:12:58;;;;;;;3.63;1.90;;;1.30;99.90;;;;;;4934965;28;20031;-70
2024/01/16 01:15:24;;;;;;;1.75;1.50;;;1.30;99.90;;;;;;4933980;28;20098;-68
2024/01/16 01:17:50;;;;;;;3.60;1.60;;;1.30;99.90;;;;;;4936197;28;20034;-69
2024/01/16 01:20:17;;;;;;;1.83;1.50;;;1.30;99.90;;;;;;4933606;28;20102;-71
2024/01/16 01:22:44;;;;;;;1.33;1.23;;;1.30;99.90;;;;;;4936270;28;21232;-67
2024/01/16 01:25:10;;;;;;;1.73;1.52;;;1.40;99.90;;;;;;4933668;28;20101;-69
2024/01/16 01:27:36;;;;;;;1.85;1.50;;;1.30;99.90;;;;;;4933193;28;20035;-70
2024/01/16 01:30:02;;;;;;;1.90;1.30;;;1.30;99.90;;;;;;4922256;28;20507;-67
2024/01/16 01:32:27;;;;;;;2.05;1.45;;;1.30;99.90;;;;;;4914577;28;20601;-78
2024/01/16 01:34:53;;;;;;;2.35;1.60;;;1.20;99.90;;;;;;4933107;28;20182;-67
2024/01/16 01:37:18;;;;;;;2.75;2.45;;;1.30;99.90;;;;;;4934716;28;20027;-68
2024/01/16 01:39:44;;;;;;;1.80;1.55;;;1.30;99.90;;;;;;4930643;28;20093;-70
2024/01/16 01:42:10;;;;;;;2.47;1.48;;;1.30;99.90;;;;;;4928614;28;20051;-84
2024/01/16 01:44:36;;;;;;;1.85;1.25;;;1.40;99.90;;;;;;4924870;28;20039;-68
2024/01/16 01:47:02;;;;;;;1.42;1.33;;;1.30;99.90;;;;;;4929104;28;20426;-69
2024/01/16 01:49:28;;;;;;;1.88;1.50;;;1.30;99.90;;;;;;4930784;28;20012;-68
2024/01/16 01:51:54;;;;;;;1.65;1.42;;;1.30;99.90;;;;;;4923146;28;20062;-66
2024/01/16 01:54:22;;;;;;;1.65;1.55;;;1.30;99.90;;;;;;4930651;28;20126;-67
2024/01/16 01:56:48;;;;;;;2.05;1.40;;;1.40;99.90;;;;;;4930009;28;20685;-72
2024/01/16 01:59:18;;;;;;;1.88;1.60;;;1.40;99.90;;;;;;4925460;28;20032;-68
2024/01/16 02:01:48;;;;;;;1.98;1.52;;;1.50;99.90;;;;;;4928460;28;20058;-72
2024/01/16 02:04:18;;;;;;;1.65;1.55;;;1.50;99.90;;;;;;4924790;28;20032;-68
2024/01/16 02:06:44;;;;;;;2.78;2.05;;;1.40;99.90;;;;;;4925185;28;20039;-71
2024/01/16 02:09:13;;;;;;;10.15;1.50;;;1.50;99.90;;;;;;4930321;28;20534;-71
2024/01/16 02:11:41;;;;;;;1.83;1.50;;;1.50;99.90;;;;;;4928385;28;20790;-68
2024/01/16 02:14:06;;;;;;;1.98;1.65;;;1.50;99.90;;;;;;4926372;28;20027;-69
2024/01/16 02:16:38;;;;;;;2.40;1.35;;;1.50;99.90;;;;;;4927287;28;20090;-69
2024/01/16 02:19:04;;;;;;;1.20;1.00;;;1.50;99.90;;;;;;4928109;28;20126;-69
2024/01/16 02:21:51;;;;;;;2.40;1.63;;;1.60;99.90;;;;;;4930715;28;20139;-68
2024/01/16 02:24:18;;;;;;;1.63;1.13;;;1.60;99.90;;;;;;4929607;28;20039;-71
2024/01/16 02:26:44;;;;;;;1.50;1.15;;;1.60;99.90;;;;;;4929137;28;21774;-71
2024/01/16 02:29:10;;;;;;;1.20;1.10;;;1.60;99.90;;;;;;4924235;28;20134;-71
2024/01/16 02:31:36;;;;;;;2.03;1.33;;;1.60;99.90;;;;;;4925034;28;20042;-70
2024/01/16 02:34:03;;;;;;;1.92;1.02;;;1.70;99.90;;;;;;4924981;28;20078;-68
2024/01/16 02:36:30;;;;;;;3.17;1.33;;;1.70;99.90;;;;;;4928874;28;20106;-68
2024/01/16 02:38:56;;;;;;;2.35;1.67;;;1.60;99.90;;;;;;4927335;28;20122;-68
2024/01/16 02:41:22;;;;;;;1.45;1.25;;;1.60;99.90;;;;;;4927666;28;20050;-67
2024/01/16 02:43:48;;;;;;;2.00;1.40;;;1.50;99.90;;;;;;4928430;28;20019;-69
2024/01/16 02:46:14;;;;;;;1.50;1.20;;;1.40;99.90;;;;;;4930847;28;20034;-68
2024/01/16 02:48:40;;;;;;;2.83;1.70;;;1.40;99.90;;;;;;4927397;28;20042;-69
2024/01/16 02:51:05;;;;;;;2.47;1.75;;;1.30;99.90;;;;;;4915638;28;20063;-69
2024/01/16 02:53:31;;;;;;;2.83;1.65;;;1.30;99.90;;;;;;4925291;28;20163;-69
2024/01/16 02:56:00;;;;;;;2.78;1.80;;;1.30;99.90;;;;;;4928684;28;20151;-69
2024/01/16 02:58:30;;;;;;;2.33;1.70;;;1.30;99.90;;;;;;4928774;28;20027;-69
2024/01/16 03:00:57;;;;;;;2.50;1.42;;;1.20;99.90;;;;;;4928529;28;20047;-66
2024/01/16 03:03:22;;;;;;;2.47;2.00;;;1.20;99.90;;;;;;4934533;28;20150;-66
2024/01/16 03:05:48;;;;;;;2.58;1.83;;;1.30;99.90;;;;;;4932793;28;20164;-66
2024/01/16 03:08:14;;;;;;;2.03;1.70;;;1.30;99.90;;;;;;4938412;28;20117;-66
2024/01/16 03:10:40;;;;;;;3.53;1.63;;;1.30;99.90;;;;;;4935085;28;20507;-66
2024/01/16 03:13:05;;;;;;;2.45;1.70;;;1.30;99.90;;;;;;4937882;28;20129;-66
2024/01/16 03:15:31;;;;;;;2.47;1.70;;;1.20;99.90;;;;;;4937894;28;20032;-66
2024/01/16 03:17:58;;;;;;;1.52;1.38;;;1.20;99.90;;;;;;4934199;28;20063;-66
2024/01/16 03:20:24;;;;;;;2.28;1.95;;;1.20;99.90;;;;;;4930292;28;20041;-68
2024/01/16 03:22:50;;;;;;;1.95;1.35;;;1.20;99.90;;;;;;4930679;28;20028;-65
2024/01/16 03:25:17;;;;;;;2.22;1.90;;;1.20;99.90;;;;;;4928803;28;20496;-66
2024/01/16 03:27:43;;;;;;;2.15;1.90;;;1.10;99.90;;;;;;4929810;28;20050;-65
2024/01/16 03:30:10;;;;;;;2.92;1.77;;;1.20;99.90;;;;;;4928899;28;20027;-65
2024/01/16 03:32:36;;;;;;;2.17;1.88;;;1.20;99.90;;;;;;4931943;28;20054;-66
2024/01/16 03:35:02;;;;;;;2.10;1.35;;;1.10;99.90;;;;;;4929766;28;20035;-65
2024/01/16 03:37:27;;;;;;;1.55;1.35;;;1.10;99.90;;;;;;4930981;28;20043;-65
2024/01/16 03:39:54;;;;;;;1.80;1.20;;;1.10;99.90;;;;;;4927643;28;20055;-68
2024/01/16 03:42:20;;;;;;;1.27;1.00;;;1.10;99.90;;;;;;4927610;28;20031;-67
2024/01/16 03:44:46;;;;;;;2.38;1.80;;;1.10;99.90;;;;;;4928031;28;20057;-68
2024/01/16 03:47:12;;;;;;;1.67;1.45;;;1.10;99.90;;;;;;4929850;28;20036;-69
2024/01/16 03:49:37;;;;;;;3.05;1.90;;;1.10;99.90;;;;;;4930235;28;20027;-68
2024/01/16 03:52:03;;;;;;;1.88;1.65;;;1.10;99.90;;;;;;4931571;28;20057;-67
2024/01/16 03:54:29;;;;;;;1.92;1.58;;;1.20;99.90;;;;;;4927751;28;20054;-68
2024/01/16 03:56:55;;;;;;;2.30;1.55;;;1.10;99.90;;;;;;4928032;28;20086;-69
2024/01/16 03:59:21;;;;;;;1.58;1.40;;;1.10;99.90;;;;;;4928413;28;20051;-69
2024/01/16 04:01:47;;;;;;;1.75;1.63;;;1.10;99.90;;;;;;4929739;28;20031;-69
2024/01/16 04:04:13;;;;;;;2.17;1.60;;;1.10;99.90;;;;;;4930598;28;20036;-68
2024/01/16 04:06:39;;;;;;;2.65;1.73;;;1.10;99.90;;;;;;4931223;28;20063;-66
2024/01/16 04:09:08;;;;;;;5.45;1.73;;;1.10;99.90;;;;;;4930078;28;20035;-67
2024/01/16 04:11:34;;;;;;;2.63;1.73;;;1.10;99.90;;;;;;4927893;28;20027;-67
2024/01/16 04:14:00;;;;;;;2.05;1.50;;;1.10;99.90;;;;;;4928731;28;20031;-68
2024/01/16 04:16:25;;;;;;;1.40;1.30;;;1.10;99.90;;;;;;4927574;28;20048;-68
2024/01/16 04:18:51;;;;;;;3.25;1.73;;;1.10;99.90;;;;;;4932473;28;20089;-66
2024/01/16 04:21:16;;;;;;;3.00;1.90;;;1.10;99.90;;;;;;4937002;28;20127;-69
2024/01/16 04:23:42;;;;;;;2.15;1.45;;;1.10;99.90;;;;;;4936892;28;20035;-68
2024/01/16 04:26:08;;;;;;;3.05;1.60;;;1.10;99.90;;;;;;4927796;28;20114;-67
2024/01/16 04:28:34;;;;;;;2.08;1.58;;;1.10;99.90;;;;;;4935493;28;20303;-68
2024/01/16 04:31:01;;;;;;;2.25;1.65;;;1.10;99.90;;;;;;4934305;28;20448;-68
2024/01/16 04:33:27;;;;;;;3.30;1.67;;;1.10;99.90;;;;;;4930541;28;20035;-65
2024/01/16 04:35:53;;;;;;;2.30;2.00;;;1.10;99.90;;;;;;4933160;28;20047;-66
2024/01/16 04:38:18;;;;;;;2.20;1.70;;;1.10;99.90;;;;;;4934876;28;20114;-68
2024/01/16 04:40:44;;;;;;;2.20;1.58;;;1.10;99.90;;;;;;4935427;28;20324;-69
2024/01/16 04:43:09;;;;;;;3.72;2.00;;;1.20;99.90;;;;;;4935347;28;20518;-66
2024/01/16 04:45:35;;;;;;;1.95;1.45;;;1.10;99.90;;;;;;4934089;28;20031;-66
2024/01/16 04:48:01;;;;;;;2.63;1.60;;;1.20;99.90;;;;;;4936131;28;20035;-67
2024/01/16 04:50:31;;;;;;;2.55;1.83;;;1.20;99.90;;;;;;4933545;28;20059;-68
2024/01/16 04:53:00;;;;;;;2.67;1.75;;;1.10;99.90;;;;;;4934830;28;20512;-68
2024/01/16 04:55:27;;;;;;;2.30;1.70;;;1.10;99.90;;;;;;4930054;28;20144;-68
2024/01/16 04:57:54;;;;;;;3.10;2.00;;;1.10;99.90;;;;;;4936383;28;20106;-68
2024/01/16 05:00:20;;;;;;;3.95;2.15;;;1.10;99.90;;;;;;4927302;28;20583;-67
2024/01/16 05:02:46;;;;;;;2.78;1.92;;;1.20;99.90;;;;;;4922379;28;20043;-68
2024/01/16 05:05:12;;;;;;;2.50;2.15;;;1.20;99.90;;;;;;4936370;28;20031;-68
2024/01/16 05:07:38;;;;;;;1.65;1.52;;;1.20;99.90;;;;;;4933245;28;20081;-68
2024/01/16 05:10:04;;;;;;;2.33;1.92;;;1.10;99.90;;;;;;4936663;28;20666;-68
2024/01/16 05:12:30;;;;;;;1.85;1.55;;;1.10;99.90;;;;;;4930614;28;20043;-68
2024/01/16 05:14:55;;;;;;;2.53;1.80;;;1.10;99.90;;;;;;4935450;28;20095;-68
2024/01/16 05:17:21;;;;;;;1.80;1.60;;;1.10;99.90;;;;;;4932262;28;20038;-68
2024/01/16 05:19:46;;;;;;;3.83;1.98;;;1.10;99.90;;;;;;4934683;28;20054;-71
2024/01/16 05:22:12;;;;;;;2.28;1.98;;;1.10;99.90;;;;;;4933772;28;20107;-67
2024/01/16 05:24:38;;;;;;;2.97;1.98;;;1.10;99.90;;;;;;4936735;28;20042;-68
2024/01/16 05:27:04;;;;;;;2.83;1.75;;;1.10;99.90;;;;;;4935310;28;20074;-68
2024/01/16 05:29:31;;;;;;;2.00;1.50;;;1.10;99.90;;;;;;4932169;28;20388;-68
2024/01/16 05:31:56;;;;;;;2.25;1.88;;;1.10;99.90;;;;;;4935156;28;20035;-68
2024/01/16 05:34:22;;;;;;;3.60;1.98;;;1.00;99.90;;;;;;4918616;28;20035;-70
2024/01/16 05:36:48;;;;;;;2.95;2.03;;;1.00;99.90;;;;;;4933837;28;20470;-71
2024/01/16 05:39:13;;;;;;;2.40;2.10;;;1.00;99.90;;;;;;4929735;28;20062;-69
2024/01/16 05:41:39;;;;;;;1.80;1.67;;;1.00;99.90;;;;;;4934737;28;20348;-68
2024/01/16 05:44:04;;;;;;;3.63;2.08;;;1.00;99.90;;;;;;4935862;28;20067;-67
2024/01/16 05:46:33;;;;;;;2.90;1.52;;;1.00;99.90;;;;;;4930221;28;20039;-68
2024/01/16 05:48:59;;;;;;;2.83;1.80;;;0.90;99.90;;;;;;4931156;28;20057;-74
2024/01/16 05:51:27;;;;;;;2.63;1.65;;;0.90;99.90;;;;;;4929439;28;20488;-69
2024/01/16 05:53:52;;;;;;;2.25;1.80;;;0.90;99.90;;;;;;4932135;28;20558;-68
2024/01/16 05:56:18;;;;;;;1.95;1.50;;;0.90;99.90;;;;;;4939038;28;20035;-72
2024/01/16 05:58:44;;;;;;;1.77;1.08;;;0.90;99.90;;;;;;4931681;28;20055;-79
2024/01/16 06:01:13;;;;;;;3.22;2.05;;;0.80;99.90;;;;;;4932637;28;20039;-68
2024/01/16 06:03:39;;;;;;;1.50;1.40;;;0.80;99.90;;;;;;4928908;28;20042;-72
2024/01/16 06:06:05;;;;;;;3.30;2.00;;;0.80;99.90;;;;;;4923843;28;20039;-68
2024/01/16 06:08:31;;;;;;;2.80;1.70;;;0.80;99.90;;;;;;4931573;28;20052;-69
2024/01/16 06:10:56;;;;;;;1.80;1.55;;;0.80;99.90;;;;;;4931279;28;20479;-66
2024/01/16 06:13:22;;;;;;;2.67;1.55;;;0.80;99.90;;;;;;4933418;28;20146;-68
2024/01/16 06:15:48;;;;;;;1.85;1.60;;;0.80;99.90;;;;;;4931705;28;20588;-64
2024/01/16 06:18:13;;;;;;;4.03;1.45;;;0.80;99.90;;;;;;4930275;28;20042;-68
2024/01/16 06:20:39;;;;;;;3.60;1.67;;;0.90;99.90;;;;;;4930022;28;20035;-69
2024/01/16 06:23:05;;;;;;;1.80;1.60;;;0.90;99.90;;;;;;4935936;28;20039;-67
2024/01/16 06:25:30;;;;;;;4.68;2.08;;;0.90;99.90;;;;;;4931123;28;20062;-73
2024/01/16 06:27:56;;;;;;;2.13;1.67;;;0.90;99.90;;;;;;4924545;28;20035;-70
2024/01/16 06:30:22;;;;;;;3.08;2.03;;;0.90;99.90;;;;;;4925778;28;20676;-71
2024/01/16 06:32:49;;;;;;;4.15;2.58;;;0.90;99.90;;;;;;4928348;28;20488;-70
2024/01/16 06:35:16;;;;;;;3.88;2.50;;;0.90;99.90;;;;;;4924153;28;20989;-70
2024/01/16 06:37:42;;;;;;;2.47;1.60;;;0.90;99.90;;;;;;4925700;28;20043;-71
2024/01/16 06:40:09;;;;;;;4.10;1.40;;;0.90;99.90;;;;;;4925578;28;20046;-65
2024/01/16 06:42:35;;;;;;;3.47;1.92;;;0.90;99.90;;;;;;4921306;28;20114;-69
2024/01/16 06:45:01;;;;;;;2.45;1.77;;;1.00;99.90;;;;;;4926471;28;20035;-69
2024/01/16 06:47:27;;;;;;;3.72;1.67;;;1.00;99.90;;;;;;4932107;28;20043;-68
2024/01/16 06:49:53;;;;;;;2.22;1.50;;;1.00;99.90;;;;;;4935063;28;20031;-68
2024/01/16 06:52:19;;;;;;;2.25;1.10;;;1.00;99.90;;;;;;4934829;28;20047;-69
2024/01/16 06:54:45;;;;;;;3.67;1.38;;;1.00;99.90;;;;;;4932338;28;20138;-68
2024/01/16 06:57:11;;;;;;;1.77;1.40;;;1.00;99.90;;;;;;4931677;28;20031;-68
2024/01/16 06:59:36;;;;;;;2.83;1.92;;;1.00;99.90;;;;;;4929029;28;20153;-69
2024/01/16 07:02:03;;;;;;;2.35;1.58;;;1.00;99.90;;;;;;4927610;28;20067;-69
2024/01/16 07:04:29;;;;;;;1.55;1.23;;;1.10;99.90;;;;;;4932059;28;20500;-69
2024/01/16 07:06:55;;;;;;;1.58;1.10;;;1.10;99.90;;;;;;4932430;28;20038;-68
2024/01/16 07:09:20;;;;;;;2.47;1.38;;;1.10;99.90;;;;;;4934262;28;20027;-68
2024/01/16 07:11:47;;;;;;;2.50;1.40;;;1.10;99.90;;;;;;4932969;28;20475;-68
2024/01/16 07:14:13;;;;;;;2.20;1.30;;;1.20;99.90;;;;;;4937389;28;20067;-71
2024/01/16 07:16:39;;;;;;;1.77;1.58;;;1.20;99.90;;;;;;4932665;28;20111;-68
2024/01/16 07:19:05;;;;;;;2.35;1.60;;;1.30;99.90;;;;;;4934933;28;20170;-69
2024/01/16 07:21:30;;;;;;;2.22;1.40;;;1.30;99.90;;;;;;4936242;28;20119;-68
2024/01/16 07:23:56;;;;;;;2.55;1.60;;;1.30;99.90;;;;;;4928806;28;20118;-68
2024/01/16 07:26:23;;;;;;;1.50;1.33;;;1.30;99.90;;;;;;4933415;28;20045;-70
2024/01/16 07:28:49;;;;;;;1.65;1.27;;;1.20;99.90;;;;;;4927706;28;20055;-68
2024/01/16 07:31:16;;;;;;;2.13;1.33;;;1.20;99.90;;;;;;4924233;28;20127;-71
2024/01/16 07:33:42;;;;;;;2.22;1.65;;;1.30;99.90;;;;;;4927963;28;20047;-68
2024/01/16 07:36:08;;;;;;;5.18;1.70;;;1.40;99.90;;;;;;4931379;28;20027;-68
2024/01/16 07:38:34;;;;;;;2.38;1.65;;;1.40;99.90;;;;;;4930466;28;20047;-70
2024/01/16 07:40:59;;;;;;;2.08;1.40;;;1.40;99.90;;;;;;4918151;28;20038;-69
2024/01/16 07:43:25;;;;;;;2.80;1.73;;;1.40;99.90;;;;;;4934282;28;20500;-69
2024/01/16 07:45:51;;;;;;;2.08;1.63;;;1.40;99.90;;;;;;4935066;28;20027;-69
2024/01/16 07:48:16;;;;;;;3.05;1.45;;;1.40;99.90;;;;;;4936691;28;20024;-68
2024/01/16 07:50:42;;;;;;;2.28;1.60;;;1.40;99.90;;;;;;4937064;28;20106;-69
2024/01/16 07:53:07;;;;;;;1.35;1.25;;;1.40;99.90;;;;;;4940459;28;20082;-70
2024/01/16 07:55:33;;;;;;;7.75;3.22;;;1.40;99.90;;;;;;4937213;28;20050;-70
2024/01/16 07:57:59;;;;;;;2.03;1.60;;;1.40;99.90;;;;;;4932589;28;20492;-69
2024/01/16 08:00:24;;;;;;;1.83;1.48;;;1.40;99.90;;;;;;4937209;28;20098;-68
2024/01/16 08:02:50;;;;;;;2.92;2.08;;;1.40;99.90;;;;;;4938656;28;20658;-67
2024/01/16 08:05:15;;;;;;;1.77;1.40;;;1.40;99.90;;;;;;4934109;28;20043;-69
2024/01/16 08:07:44;;;;;;;2.67;1.63;;;1.40;99.90;;;;;;4936987;28;20059;-68
2024/01/16 08:10:10;;;;;;;2.03;1.63;;;1.40;99.90;;;;;;4934263;28;20059;-69
2024/01/16 08:12:37;;;;;;;3.05;1.60;;;1.40;99.90;;;;;;4936361;28;20054;-69
2024/01/16 08:15:03;;;;;;;2.50;1.67;;;1.40;99.90;;;;;;4936702;28;20031;-70
2024/01/16 08:17:29;;;;;;;3.60;1.90;;;1.40;99.90;;;;;;4938897;28;20036;-69
2024/01/16 08:19:55;;;;;;;4.18;2.00;;;1.40;99.90;;;;;;4913954;28;20073;-68
2024/01/16 08:22:20;;;;;;;1.42;1.17;;;1.40;99.90;;;;;;4940408;28;20066;-70
2024/01/16 08:24:46;;;;;;;2.67;1.73;;;1.30;99.90;;;;;;4934648;28;20095;-68
2024/01/16 08:27:12;;;;;;;2.33;1.42;;;1.40;99.90;;;;;;4932785;28;20138;-70
2024/01/16 08:29:37;;;;;;;1.88;1.33;;;1.40;99.90;;;;;;4935000;28;20074;-69
2024/01/16 08:32:04;;;;;;;4.00;2.10;;;1.40;99.90;;;;;;4938251;28;20397;-69
2024/01/16 08:34:29;;;;;;;1.98;1.80;;;1.40;99.90;;;;;;4939930;28;20058;-68
2024/01/16 08:36:56;;;;;;;2.58;1.48;;;1.40;99.90;;;;;;4935444;28;20467;-68
2024/01/16 08:39:24;;;;;;;1.85;1.70;;;1.40;99.90;;;;;;4941081;28;20039;-68
2024/01/16 08:41:49;;;;;;;2.53;1.60;;;1.50;99.90;;;;;;4936721;28;20101;-68
2024/01/16 08:44:15;;;;;;;3.45;1.60;;;1.50;99.90;;;;;;4936628;28;20030;-68
2024/01/16 08:46:41;;;;;;;3.92;1.80;;;1.60;99.90;;;;;;4934709;28;20032;-68
2024/01/16 08:49:06;;;;;;;1.83;1.52;;;1.60;99.90;;;;;;4937909;28;20106;-67
2024/01/16 08:51:32;;;;;;;3.60;1.92;;;1.50;99.90;;;;;;4940533;28;20029;-68
2024/01/16 08:53:57;;;;;;;2.63;1.40;;;1.60;99.90;;;;;;4933539;28;20035;-68
2024/01/16 08:56:23;;;;;;;7.95;1.50;;;1.60;99.90;;;;;;4920111;29;20043;-68
2024/01/16 08:58:48;;;;;;;2.22;1.50;;;1.60;99.90;;;;;;4937462;28;20035;-69
2024/01/16 09:01:14;;;;;;;1.75;1.20;;;1.70;99.90;;;;;;4934918;28;20027;-70
2024/01/16 09:03:43;;;;;;;2.30;1.30;;;1.60;99.90;;;;;;4933663;28;20538;-70
2024/01/16 09:06:10;;;;;;;1.42;1.08;;;1.70;99.90;;;;;;4936994;28;20024;-70
2024/01/16 09:08:35;;;;;;;1.55;1.27;;;1.70;99.90;;;;;;4935197;28;20051;-69
2024/01/16 09:11:01;;;;;;;3.85;1.60;;;1.70;99.90;;;;;;4934987;28;20046;-70
2024/01/16 09:13:27;;;;;;;2.08;1.58;;;1.60;99.90;;;;;;4934229;28;20475;-70
2024/01/16 09:15:52;;;;;;;1.73;1.20;;;1.60;99.90;;;;;;4935477;28;20110;-70
2024/01/16 09:18:18;;;;;;;1.70;1.17;;;1.60;99.90;;;;;;4936904;28;20027;-70
2024/01/16 09:20:44;;;;;;;2.38;1.30;;;1.60;99.90;;;;;;4934800;28;20115;-66
2024/01/16 09:23:09;;;;;;;3.17;1.40;;;1.60;99.90;;;;;;4937725;28;20078;-66
2024/01/16 09:25:36;;;;;;;1.52;1.10;;;1.70;99.90;;;;;;4937149;28;20129;-67
2024/01/16 09:28:02;;;;;;;3.15;1.40;;;1.70;99.90;;;;;;4934006;28;20031;-67
2024/01/16 09:30:27;;;;;;;3.08;1.48;;;1.70;99.90;;;;;;4928956;28;20028;-67
2024/01/16 09:32:53;;;;;;;4.88;1.40;;;1.70;99.90;;;;;;4934910;28;20629;-67
2024/01/16 09:35:18;;;;;;;2.15;1.38;;;1.70;99.90;;;;;;4932236;28;20135;-68
2024/01/16 09:37:44;;;;;;;2.35;1.70;;;1.70;99.90;;;;;;4937048;28;20043;-68
2024/01/16 09:40:11;;;;;;;2.65;1.45;;;1.70;99.90;;;;;;4935746;28;20019;-68
2024/01/16 09:42:37;;;;;;;3.38;1.58;;;1.70;99.90;;;;;;4937946;28;20035;-68
2024/01/16 09:45:03;;;;;;;2.40;1.35;;;1.60;99.90;;;;;;4934800;28;20035;-68
2024/01/16 09:47:32;;;;;;;3.42;1.65;;;1.60;99.90;;;;;;4935994;28;20031;-68
2024/01/16 09:50:00;;;;;;;3.05;1.45;;;1.70;99.90;;;;;;4938776;28;20031;-68
2024/01/16 09:52:26;;;;;;;1.88;1.33;;;1.70;99.90;;;;;;4933021;28;20067;-68
2024/01/16 09:54:51;;;;;;;2.38;1.60;;;1.70;99.90;;;;;;4935453;28;20070;-68
2024/01/16 09:57:22;;;;;;;1.73;1.30;;;1.80;99.90;;;;;;4934551;28;20702;-68
2024/01/16 09:59:48;;;;;;;2.90;1.50;;;1.90;99.90;;;;;;4935375;28;20042;-68
2024/01/16 10:02:14;;;;;;;1.85;1.05;;;2.00;99.90;;;;;;4935762;28;20031;-68
2024/01/16 10:04:41;;;;;;;4.85;1.65;;;1.90;99.90;;;;;;4931660;28;20027;-68
2024/01/16 10:07:09;;;;;;;2.80;1.20;;;1.90;99.90;;;;;;4934381;28;20399;-68
2024/01/16 10:09:35;;;;;;;2.03;1.30;;;1.80;99.90;;;;;;4936306;28;20111;-68
2024/01/16 10:12:01;;;;;;;2.65;1.45;;;1.90;99.90;;;;;;4918855;28;20593;-68
2024/01/16 10:14:27;;;;;;;3.40;1.40;;;1.90;99.90;;;;;;4937751;28;20109;-68
2024/01/16 10:17:09;;;;;;;3.50;1.63;;;2.00;99.90;;;;;;4921575;28;20122;-68
2024/01/16 10:19:45;;;;;;;3.20;1.80;;;2.10;99.90;;;;;;4935960;28;20150;-68
2024/01/16 10:22:11;;;;;;;2.22;1.27;;;2.30;99.90;;;;;;4934870;28;20118;-68
2024/01/16 10:24:36;;;;;;;2.17;1.17;;;2.40;99.90;;;;;;4937430;28;20043;-71
2024/01/16 10:27:03;;;;;;;1.70;1.15;;;2.40;99.90;;;;;;4936185;28;20049;-69
2024/01/16 10:29:31;;;;;;;1.95;1.20;;;2.40;99.90;;;;;;4934605;28;20031;-70
2024/01/16 10:31:57;;;;;;;3.05;1.58;;;2.40;99.90;;;;;;4936301;28;20066;-69
2024/01/16 10:34:23;;;;;;;1.55;1.42;;;2.40;99.90;;;;;;4931047;28;20043;-69
2024/01/16 10:36:52;;;;;;;1.35;1.02;;;2.40;99.90;;;;;;4937690;28;20020;-71
2024/01/16 10:39:18;;;;;;;3.42;1.27;;;2.40;99.90;;;;;;4935878;28;20165;-72
2024/01/16 10:41:57;;;;;;;3.65;1.35;;;2.40;99.90;;;;;;4931072;28;20031;-71
2024/01/16 10:44:23;;;;;;;3.00;1.10;;;2.30;99.90;;;;;;4937549;28;20035;-72
2024/01/16 10:46:49;;;;;;;2.30;1.65;;;2.30;99.90;;;;;;4922686;29;20031;-72
2024/01/16 10:49:15;;;;;;;3.38;1.30;;;2.40;99.90;;;;;;4937287;28;20701;-72
2024/01/16 10:51:44;;;;;;;1.92;1.20;;;2.30;99.90;;;;;;4935951;28;20042;-72
2024/01/16 10:54:14;;;;;;;1.63;1.30;;;2.30;99.90;;;;;;4935935;28;20721;-71
2024/01/16 10:56:46;;;;;;;2.28;1.30;;;2.30;99.90;;;;;;4935885;28;20071;-71
2024/01/16 10:59:33;;;;;;;4.30;1.45;;;2.30;99.90;;;;;;4938818;28;20050;-71
2024/01/16 11:02:01;;;;;;;3.53;1.40;;;2.30;99.90;;;;;;4938001;28;20410;-71
2024/01/16 11:04:27;;;;;;;1.48;1.00;;;2.30;99.90;;;;;;4936180;28;20070;-71
2024/01/16 11:06:54;;;;;;;6.53;3.40;;;2.40;99.90;;;;;;4935460;28;20639;-71
2024/01/16 11:09:21;;;;;;;7.18;2.22;;;2.40;99.90;;;;;;4937309;28;21097;-71
2024/01/16 11:11:48;;;;;;;15.30;8.65;;;2.50;99.90;;;;;;4936967;28;20070;-72
2024/01/16 11:14:15;;;;;;;7.63;4.60;;;2.50;99.90;;;;;;4936871;28;20035;-71
2024/01/16 11:16:42;;;;;;;6.57;4.20;;;2.50;99.90;;;;;;4937376;28;20054;-71
2024/01/16 11:19:09;;;;;;;9.70;3.47;;;2.50;99.90;;;;;;4937394;28;20020;-68
2024/01/16 11:21:37;;;;;;;2.20;1.50;;;2.50;99.90;;;;;;4938236;28;20036;-68
2024/01/16 11:24:02;;;;;;;6.40;2.65;;;2.60;99.90;;;;;;4935314;28;20089;-69
2024/01/16 11:26:33;;;;;;;1.83;1.10;;;2.60;99.90;;;;;;4938905;28;20035;-68
2024/01/16 11:29:00;;;;;;;3.38;1.50;;;2.60;99.90;;;;;;4940282;28;20031;-68
2024/01/16 11:31:35;;;;;;;6.20;1.45;;;2.70;99.90;;;;;;4940013;28;20110;-68
2024/01/16 11:34:02;;;;;;;2.42;1.00;;;2.70;99.90;;;;;;4940899;28;20082;-69
2024/01/16 11:36:55;;;;;;;4.80;2.60;;;2.70;99.90;;;;;;4940978;28;20039;-68
2024/01/16 11:39:24;;;;;;;1.55;0.90;;;2.70;99.90;;;;;;4940942;28;20027;-69
2024/01/16 11:41:52;;;;;;;1.55;0.68;;;2.70;99.90;;;;;;4939219;28;20476;-69
2024/01/16 11:44:37;;;;;;;1.55;1.10;;;2.70;99.90;;;;;;4937466;28;20094;-69
2024/01/16 11:47:04;;;;;;;2.83;1.08;;;2.80;99.90;;;;;;4925350;28;20817;-69
2024/01/16 11:49:33;;;;;;;3.08;1.00;;;2.80;99.90;;;;;;4936853;28;20035;-69
2024/01/16 11:51:59;;;;;;;4.63;1.50;;;2.90;99.90;;;;;;4939860;28;20031;-69
2024/01/16 11:54:25;;;;;;;1.55;0.70;;;2.90;99.90;;;;;;4941957;28;20021;-69
2024/01/16 11:57:21;;;;;;;1.63;1.08;;;3.00;99.90;;;;;;4939372;28;20035;-71
2024/01/16 12:00:14;;;;;;;1.30;0.70;;;2.90;99.90;;;;;;4940628;28;20043;-71
2024/01/16 12:02:55;;;;;;;1.80;0.73;;;3.00;99.90;;;;;;4941391;28;20040;-71
2024/01/16 12:05:21;;;;;;;2.90;1.02;;;3.10;99.90;;;;;;4938015;28;20065;-71
2024/01/16 12:07:52;;;;;;;1.98;1.08;;;3.20;99.90;;;;;;4937420;28;20463;-71
2024/01/16 12:10:19;;;;;;;0.52;0.52;;;3.30;99.90;;;;;;4939360;28;20495;-71
2024/01/16 12:12:46;;;;;;;3.10;0.80;;;3.30;99.90;;;;;;4942670;28;20039;-69
2024/01/16 12:15:20;;;;;;;1.65;0.52;;;3.30;99.90;;;;;;4942635;28;20058;-68
2024/01/16 12:18:03;;;;;;;1.92;1.00;;;3.30;99.90;;;;;;4939432;28;20078;-69
2024/01/16 12:20:31;;;;;;;2.38;0.70;;;3.40;99.90;;;;;;4937412;28;20055;-68
2024/01/16 12:22:58;;;;;;;0.55;0.50;;;3.40;99.90;;;;;;4939940;28;20039;-68
2024/01/16 12:25:25;;;;;;;1.70;1.00;;;3.40;99.90;;;;;;4940050;28;20038;-69
2024/01/16 12:28:01;;;;;;;1.23;0.88;;;3.30;99.90;;;;;;4920416;28;20039;-70
2024/01/16 12:30:29;;;;;;;1.40;0.75;;;3.30;99.90;;;;;;4936584;28;20130;-71
2024/01/16 12:33:12;;;;;;;0.68;0.60;;;3.50;99.90;;;;;;4933258;28;20039;-69
2024/01/16 12:35:45;;;;;;;5.35;0.80;;;3.60;99.90;;;;;;4935270;28;20038;-67
2024/01/16 12:38:15;;;;;;;1.25;0.60;;;3.40;99.90;;;;;;4934343;28;20110;-69
2024/01/16 12:40:49;;;;;;;2.60;0.70;;;3.40;99.90;;;;;;4933575;28;20218;-72
2024/01/16 12:43:17;;;;;;;2.20;0.80;;;3.30;99.90;;;;;;4935220;28;20166;-71
2024/01/16 12:45:44;;;;;;;1.25;0.65;;;3.30;99.90;;;;;;4935360;28;20034;-69
2024/01/16 12:48:10;;;;;;;0.57;0.32;;;3.30;99.60;;;;;;4933811;28;20035;-71
2024/01/16 12:50:37;;;;;;;1.60;0.70;;;3.30;99.60;;;;;;4936330;28;20047;-66
2024/01/16 12:53:10;;;;;;;2.00;0.93;;;3.30;99.90;;;;;;4934014;28;20058;-67
2024/01/16 12:55:40;;;;;;;1.80;0.40;;;3.40;99.90;;;;;;4936960;28;20047;-65